Latest Weather Observations for Sydney Olympic Park

IDN60901

Issued at 11:51 pm EST Friday 29 April 2016 (issued every 10 minutes, with the page automatically refreshed every 10 minutes)

About weather observations | Map of Sydney area stations | Latest observations for Sydney area | Other Formats
Station Details ID: 066212 Name: SYDNEY OLYMPIC PARK AWS (ARCHERY CENTRE) Lat: -33.83 Lon: 151.07 Height: 4.0 m
Data from the previous 72 hours. | See also: Recent months at Sydney Olympic Park
Date/Time
EST
Tmp

°C
App
Tmp
°C
Dew
Point
°C
Rel
Hum
%
Delta-T

°C
Wind Press
QNH
hPa
Press
MSL
hPa
Rain
since
9 am
mm
Dir
 
Spd
km/h
Gust
km/h
Spd
kts
Gust
kts
29/11:30pm 17.9 20.3 16.9 94 0.6 CALM 0 0 0 0 - - 0.0
29/11:00pm 18.1 20.4 16.8 92 0.8 CALM 0 0 0 0 - - 0.0
29/10:30pm 18.6 21.0 16.9 90 1.0 CALM 0 0 0 0 - - 0.0
29/10:00pm 18.6 21.0 17.1 91 0.9 CALM 0 0 0 0 - - 0.0
29/09:30pm 18.8 21.2 16.9 89 1.1 CALM 0 0 0 0 - - 0.0
29/09:00pm 18.8 21.1 16.8 88 1.2 CALM 0 0 0 0 - - 0.0
29/08:30pm 19.3 21.6 16.7 85 1.6 CALM 0 0 0 0 - - 0.0
29/08:00pm 20.2 22.1 16.6 80 2.2 ENE 2 7 1 4 - - 0.0
29/07:30pm 21.1 22.9 16.5 75 2.8 N 2 9 1 5 - - 0.0
29/07:00pm 21.8 23.3 16.7 73 3.1 ENE 4 9 2 5 - - 0.0
29/06:30pm 21.9 23.7 17.3 75 2.8 ENE 4 7 2 4 - - 0.0
29/06:00pm 22.2 23.8 17.8 76 2.7 ENE 6 7 3 4 - - 0.0
29/05:30pm 22.5 24.8 17.6 74 3.0 ENE 2 9 1 5 - - 0.0
29/05:00pm 23.0 24.3 17.2 70 3.6 E 6 13 3 7 - - 0.0
29/04:30pm 23.7 25.0 16.2 63 4.6 ENE 4 9 2 5 - - 0.0
29/04:00pm 24.2 25.7 15.7 59 5.1 NE 2 11 1 6 - - 0.0
29/03:30pm 24.7 25.6 16.2 59 5.2 ENE 6 11 3 6 - - 0.0
29/03:00pm 24.8 25.4 15.7 57 5.5 E 7 11 4 6 - - 0.0
29/02:30pm 25.0 25.6 15.9 57 5.5 E 7 9 4 5 - - 0.0
29/02:00pm 24.5 25.5 15.4 57 5.5 ESE 4 7 2 4 - - 0.0
29/01:30pm 24.7 25.9 14.8 54 5.9 E 2 7 1 4 - - 0.0
29/01:00pm 25.3 26.8 14.7 51 6.3 CALM 0 0 0 0 - - 0.0
29/12:30pm 24.7 26.4 16.2 59 5.2 W 2 6 1 3 - - 0.0
29/12:00pm 23.6 24.1 15.1 59 5.1 WNW 6 13 3 7 - - 0.0
29/11:30am 23.1 24.9 15.4 62 4.6 CALM 0 6 0 3 - - 0.0
29/11:00am 22.9 24.6 15.2 62 4.6 CALM 0 0 0 0 - - 0.0
29/10:30am 22.9 24.4 15.7 64 4.3 NW 2 7 1 4 - - 0.0
29/10:00am 22.2 24.2 16.0 68 3.7 CALM 0 6 0 3 - - 0.0
29/09:30am 20.6 21.3 16.2 76 2.6 WNW 7 11 4 6 - - 0.0
29/09:00am 19.2 19.6 16.4 84 1.7 WNW 9 13 5 7 - - 0.0
29/08:30am 18.3 18.7 16.3 88 1.2 WNW 9 15 5 8 - - 0.0
29/08:00am 16.3 16.5 15.8 97 0.3 WNW 9 15 5 8 - - 0.0
29/07:30am 14.8 16.3 14.6 99 0.1 CALM 0 0 0 0 - - 0.0
29/07:00am 13.6 14.7 13.4 99 0.1 CALM 0 0 0 0 - - 0.0
29/06:30am 13.5 14.5 13.3 99 0.1 CALM 0 0 0 0 - - 0.0
29/06:00am 13.4 14.4 13.2 99 0.1 CALM 0 0 0 0 - - 0.0
29/05:36am 13.4 14.4 13.2 99 0.1 CALM 0 0 0 0 - - 0.0
29/05:30am 13.4 14.4 13.2 99 0.1 CALM 0 0 0 0 - - 0.0
29/05:12am 13.5 14.5 13.3 99 0.1 CALM 0 0 0 0 - - 0.0
29/05:00am 13.7 14.8 13.5 99 0.1 CALM 0 0 0 0 - - 0.0
29/04:30am 14.0 15.2 13.8 99 0.1 CALM 0 0 0 0 - - 0.0
29/04:00am 14.0 15.2 13.7 98 0.2 CALM 0 0 0 0 - - 0.0
29/03:30am 14.5 15.8 14.2 98 0.2 CALM 0 0 0 0 - - 0.0
29/03:00am 14.8 16.3 14.6 99 0.1 CALM 0 0 0 0 - - 0.0
29/02:30am 15.2 16.8 14.9 98 0.2 CALM 0 0 0 0 - - 0.0
29/02:03am 15.4 17.1 15.1 98 0.2 CALM 0 0 0 0 - - 0.0
29/02:00am 15.4 17.1 15.1 98 0.2 CALM 0 0 0 0 - - 0.0
29/01:44am 15.6 17.3 15.3 98 0.2 CALM 0 0 0 0 - - 0.0
29/01:30am 15.9 17.8 15.7 99 0.1 CALM 0 0 0 0 - - 0.0
29/01:00am 15.9 17.7 15.6 98 0.2 CALM 0 0 0 0 - - 0.0
29/12:30am 16.1 18.0 15.8 98 0.2 CALM 0 0 0 0 - - 0.0
29/12:00am 16.1 17.8 15.3 95 0.5 CALM 0 0 0 0 - - 0.0
 
Date/Time
EST
Tmp

°C
App
Tmp
°C
Dew
Point
°C
Rel
Hum
%
Delta-T

°C
Wind Press
QNH
hPa
Press
MSL
hPa
Rain
since
9 am
mm
Dir
 
Spd
km/h
Gust
km/h
Spd
kts
Gust
kts
28/11:30pm 16.6 18.5 15.8 95 0.5 CALM 0 0 0 0 - - 0.0
28/11:00pm 16.9 18.9 16.1 95 0.5 CALM 0 0 0 0 - - 0.0
28/10:30pm 16.9 18.8 15.8 93 0.6 CALM 0 0 0 0 - - 0.0
28/10:00pm 17.1 18.9 15.6 91 0.9 CALM 0 0 0 0 - - 0.0
28/09:30pm 17.7 19.7 15.9 89 1.1 CALM 0 0 0 0 - - 0.0
28/09:00pm 18.2 20.0 15.6 85 1.5 CALM 0 0 0 0 - - 0.0
28/08:30pm 19.5 21.5 16.0 80 2.1 CALM 0 2 0 1 - - 0.0
28/08:00pm 20.6 22.0 16.4 77 2.5 NE 4 7 2 4 - - 0.0
28/07:30pm 20.7 21.5 16.3 76 2.6 E 7 9 4 5 - - 0.0
28/07:00pm 21.1 22.1 16.9 77 2.6 E 7 13 4 7 - - 0.0
28/06:30pm 21.3 21.9 16.9 76 2.7 E 9 19 5 10 - - 0.0
28/06:00pm 21.8 22.9 17.2 75 2.8 ENE 7 13 4 7 - - 0.0
28/05:30pm 22.4 23.1 17.1 72 3.3 NE 9 17 5 9 - - 0.0
28/05:00pm 23.9 24.8 16.7 64 4.4 ENE 7 15 4 8 - - 0.0
28/04:30pm 25.1 25.5 15.4 55 5.9 NE 7 13 4 7 - - 0.0
28/04:00pm 24.9 25.2 17.1 62 4.8 E 11 13 6 7 - - 0.0
28/03:30pm 24.5 24.3 16.7 61 4.8 E 13 17 7 9 - - 0.0
28/03:00pm 25.3 25.6 17.0 60 5.1 E 11 15 6 8 - - 0.0
28/02:30pm 25.7 25.6 16.0 55 5.9 E 11 13 6 7 - - 0.0
28/02:00pm 26.2 27.2 15.3 51 6.6 ENE 4 9 2 5 - - 0.0
28/01:30pm 25.1 25.4 15.1 53 6.0 E 7 9 4 5 - - 0.0
28/01:00pm 24.4 25.0 15.9 59 5.2 ESE 7 9 4 5 - - 0.0
28/12:30pm 24.0 24.4 16.3 62 4.7 WNW 9 15 5 8 - - 0.0
28/12:00pm 23.9 25.0 16.7 64 4.4 WNW 6 13 3 7 - - 0.0
28/11:30am 21.6 22.3 15.7 69 3.5 W 6 11 3 6 - - 0.0
28/11:00am 20.7 21.3 15.7 73 3.0 WNW 7 13 4 7 - - 0.0
28/10:30am 19.5 20.2 15.6 78 2.3 NW 6 9 3 5 - - 0.0
28/10:00am 19.0 19.3 15.9 82 1.8 WNW 9 11 5 6 - - 0.0
28/09:30am 18.4 18.7 16.0 86 1.4 NW 9 15 5 8 - - 0.0
28/09:00am 17.6 17.4 15.8 89 1.1 WNW 11 15 6 8 - - 0.0
28/08:30am 17.6 18.5 16.5 93 0.7 NW 7 9 4 5 - - 0.0
28/08:00am 16.2 16.9 16.0 99 0.1 WNW 7 13 4 7 - - 0.0
28/07:30am 15.0 15.4 14.8 99 0.1 WNW 6 9 3 5 - - 0.0
28/07:00am 14.2 15.5 14.0 99 0.1 CALM 0 0 0 0 - - 0.0
28/06:30am 13.8 14.9 13.6 99 0.1 CALM 0 0 0 0 - - 0.0
28/06:00am 13.6 14.7 13.4 99 0.1 CALM 0 0 0 0 - - 0.0
28/05:30am 13.8 14.9 13.6 99 0.1 CALM 0 0 0 0 - - 0.0
28/05:00am 13.8 14.9 13.6 99 0.1 CALM 0 0 0 0 - - 0.0
28/04:30am 13.9 15.1 13.7 99 0.1 CALM 0 6 0 3 - - 0.0
28/04:00am 14.1 15.3 13.9 99 0.1 CALM 0 0 0 0 - - 0.0
28/03:30am 14.3 15.6 14.1 99 0.1 CALM 0 0 0 0 - - 0.0
28/03:00am 14.4 15.7 14.2 99 0.1 CALM 0 0 0 0 - - 0.0
28/02:30am 14.7 16.1 14.4 98 0.2 CALM 0 0 0 0 - - 0.0
28/02:00am 15.0 16.5 14.7 98 0.2 CALM 0 0 0 0 - - 0.0
28/01:30am 15.4 17.1 15.1 98 0.2 CALM 0 0 0 0 - - 0.0
28/01:00am 15.7 17.4 15.2 97 0.3 CALM 0 0 0 0 - - 0.0
28/12:30am 16.0 17.8 15.5 97 0.3 CALM 0 0 0 0 - - 0.0
28/12:00am 16.2 18.0 15.4 95 0.5 CALM 0 0 0 0 - - 0.0
 
Date/Time
EST
Tmp

°C
App
Tmp
°C
Dew
Point
°C
Rel
Hum
%
Delta-T

°C
Wind Press
QNH
hPa
Press
MSL
hPa
Rain
since
9 am
mm
Dir
 
Spd
km/h
Gust
km/h
Spd
kts
Gust
kts
27/11:30pm 16.5 18.3 15.4 93 0.6 CALM 0 0 0 0 - - 0.0
27/11:00pm 17.1 19.1 16.0 93 0.6 CALM 0 0 0 0 - - 0.0
27/10:30pm 17.6 19.3 16.3 92 0.8 WNW 2 7 1 4 - - 0.0
27/10:00pm 17.9 19.5 15.9 88 1.2 WNW 2 7 1 4 - - 0.0
27/09:30pm 18.7 19.6 16.1 85 1.5 NW 6 11 3 6 - - 0.0
27/09:00pm 19.5 19.7 16.7 84 1.7 NNE 11 24 6 13 - - 0.0
27/08:30pm 19.5 19.2 16.5 83 1.8 NNE 13 24 7 13 - - 0.0
27/08:00pm 19.5 19.5 16.3 82 1.9 NNE 11 17 6 9 - - 0.0
27/07:30pm 19.9 19.9 16.3 80 2.2 NE 11 17 6 9 - - 0.0
27/07:00pm 20.3 20.7 16.3 78 2.4 NE 9 19 5 10 - - 0.0
27/06:30pm 20.4 20.6 15.8 75 2.7 NE 9 17 5 9 - - 0.0
27/06:00pm 20.5 20.2 15.5 73 3.0 NE 11 17 6 9 - - 0.0
27/05:30pm 21.1 20.4 15.4 70 3.4 NE 13 24 7 13 - - 0.0
27/05:00pm 21.6 20.6 14.7 65 4.1 NE 13 20 7 11 - - 0.0
27/04:30pm 22.3 21.0 14.7 62 4.5 NE 15 24 8 13 - - 0.0
27/04:00pm 22.8 21.7 14.4 59 4.9 NE 13 22 7 12 - - 0.0
27/03:30pm 23.6 22.5 14.3 56 5.5 NNE 13 24 7 13 - - 0.0
27/03:00pm 23.9 22.7 14.0 54 5.8 NE 13 24 7 13 - - 0.0
27/02:30pm 24.5 23.3 14.0 52 6.2 NE 13 24 7 13 - - 0.0
27/02:00pm 24.3 23.9 14.1 53 6.0 NE 9 15 5 8 - - 0.0
27/01:30pm 24.4 23.8 14.5 54 5.9 NE 11 20 6 11 - - 0.0
27/01:00pm 24.7 24.2 13.9 51 6.4 NNE 9 17 5 9 - - 0.0
27/12:30pm 24.6 23.1 13.2 49 6.6 NNE 13 20 7 11 - - 0.0
27/12:00pm 24.5 22.8 12.5 47 6.9 NNE 13 24 7 13 - - 0.0
27/11:30am 24.3 22.6 12.6 48 6.7 N 13 22 7 12 - - 0.0
27/11:00am 22.1 22.1 13.7 59 4.9 SSE 6 7 3 4 - - 0.0
27/10:30am 22.1 22.9 13.7 59 4.9 W 2 7 1 4 - - 0.0
27/10:00am 21.0 21.5 15.5 71 3.3 WNW 7 11 4 6 - - 0.0
27/09:30am 19.0 18.7 14.3 74 2.7 NW 9 11 5 6 - - 0.0
27/09:00am 18.1 17.9 14.6 80 2.0 WNW 9 13 5 7 - - 0.0
27/08:30am 16.6 16.4 14.6 88 1.1 WNW 9 11 5 6 - - 0.0
27/08:00am 15.0 14.7 14.5 97 0.3 WNW 9 13 5 7 - - 0.0
27/07:30am 14.5 14.5 14.3 99 0.1 NW 7 11 4 6 - - 0.0
27/07:00am 13.4 13.1 13.2 99 0.1 WNW 7 9 4 5 - - 0.0
27/06:30am 12.8 13.6 12.6 99 0.1 CALM 0 6 0 3 - - 0.0
27/06:00am 12.9 13.7 12.7 99 0.1 CALM 0 0 0 0 - - 0.0
27/05:30am 13.5 14.5 13.3 99 0.1 CALM 0 0 0 0 - - 0.0
27/05:00am 13.9 15.1 13.7 99 0.1 CALM 0 0 0 0 - - 0.0
27/04:30am 14.0 15.2 13.8 99 0.1 CALM 0 7 0 4 - - 0.0
27/04:00am 14.0 15.2 13.8 99 0.1 CALM 0 0 0 0 - - 0.0
27/03:30am 14.1 15.3 13.9 99 0.1 CALM 0 0 0 0 - - 0.0
27/03:00am 14.3 15.5 13.8 97 0.3 CALM 0 0 0 0 - - 0.0
27/02:30am 14.8 16.2 14.5 98 0.2 CALM 0 0 0 0 - - 0.0
27/02:00am 15.2 16.7 14.6 96 0.3 CALM 0 0 0 0 - - 0.0
27/01:30am 16.0 17.9 15.7 98 0.2 CALM 0 0 0 0 - - 0.0
27/01:00am 16.0 17.9 15.7 98 0.2 CALM 0 0 0 0 - - 0.0
27/12:30am 15.9 17.6 15.1 95 0.5 CALM 0 0 0 0 - - 0.0
27/12:00am 16.2 18.0 15.4 95 0.5 CALM 0 0 0 0 - - 0.0

Latest Capital City Observations: Canberra | Sydney | Melbourne | Brisbane | Adelaide | Perth | Hobart | Darwin

Other Formats:

Comma delimited format used in spreadsheet applications
http://www.bom.gov.au/fwo/IDN60901/IDN60901.95765.axf

JavaScript Object Notation format (JSON) in row-major order
http://www.bom.gov.au/fwo/IDN60901/IDN60901.95765.json